sensor_id;sensor_type;location;lat;lon;timestamp;P1;durP1;ratioP1;P2;durP2;ratioP2
20456;SDS011;10387;51.102;6.848;2023-03-31T00:01:41;5.10;;;1.90;;
20456;SDS011;10387;51.102;6.848;2023-03-31T00:04:07;4.33;;;2.10;;
20456;SDS011;10387;51.102;6.848;2023-03-31T00:06:37;3.60;;;2.20;;
20456;SDS011;10387;51.102;6.848;2023-03-31T00:09:14;3.43;;;1.90;;
20456;SDS011;10387;51.102;6.848;2023-03-31T00:11:43;4.60;;;2.00;;
20456;SDS011;10387;51.102;6.848;2023-03-31T00:14:09;4.40;;;2.17;;
20456;SDS011;10387;51.102;6.848;2023-03-31T00:16:37;6.13;;;2.30;;
20456;SDS011;10387;51.102;6.848;2023-03-31T00:19:04;5.30;;;2.73;;
20456;SDS011;10387;51.102;6.848;2023-03-31T00:21:33;2.93;;;1.83;;
20456;SDS011;10387;51.102;6.848;2023-03-31T00:24:08;4.87;;;2.40;;
20456;SDS011;10387;51.102;6.848;2023-03-31T00:26:35;5.93;;;2.40;;
20456;SDS011;10387;51.102;6.848;2023-03-31T00:29:02;4.07;;;2.27;;
20456;SDS011;10387;51.102;6.848;2023-03-31T00:31:29;2.63;;;2.30;;
20456;SDS011;10387;51.102;6.848;2023-03-31T00:33:55;8.33;;;2.00;;
20456;SDS011;10387;51.102;6.848;2023-03-31T00:36:22;5.23;;;2.20;;
20456;SDS011;10387;51.102;6.848;2023-03-31T00:38:55;2.70;;;1.83;;
20456;SDS011;10387;51.102;6.848;2023-03-31T00:41:23;4.63;;;2.07;;
20456;SDS011;10387;51.102;6.848;2023-03-31T00:46:52;5.50;;;2.17;;
20456;SDS011;10387;51.102;6.848;2023-03-31T00:49:27;5.17;;;2.10;;
20456;SDS011;10387;51.102;6.848;2023-03-31T00:51:59;7.13;;;2.57;;
20456;SDS011;10387;51.102;6.848;2023-03-31T00:54:26;8.07;;;2.57;;
20456;SDS011;10387;51.102;6.848;2023-03-31T00:56:54;6.23;;;2.33;;
20456;SDS011;10387;51.102;6.848;2023-03-31T00:59:23;5.27;;;2.17;;
20456;SDS011;10387;51.102;6.848;2023-03-31T01:01:51;7.60;;;2.67;;
20456;SDS011;10387;51.102;6.848;2023-03-31T01:04:18;7.77;;;2.27;;
20456;SDS011;10387;51.102;6.848;2023-03-31T01:06:50;5.57;;;2.30;;
20456;SDS011;10387;51.102;6.848;2023-03-31T01:09:22;3.70;;;1.90;;
20456;SDS011;10387;51.102;6.848;2023-03-31T01:11:50;7.47;;;2.43;;
20456;SDS011;10387;51.102;6.848;2023-03-31T01:14:16;6.00;;;2.37;;
20456;SDS011;10387;51.102;6.848;2023-03-31T01:16:43;5.87;;;1.90;;
20456;SDS011;10387;51.102;6.848;2023-03-31T01:19:12;6.60;;;2.27;;
20456;SDS011;10387;51.102;6.848;2023-03-31T01:24:16;7.27;;;2.20;;
20456;SDS011;10387;51.102;6.848;2023-03-31T01:26:52;5.27;;;2.20;;
20456;SDS011;10387;51.102;6.848;2023-03-31T01:47:51;6.47;;;2.43;;
20456;SDS011;10387;51.102;6.848;2023-03-31T01:53:12;5.37;;;2.50;;
20456;SDS011;10387;51.102;6.848;2023-03-31T01:55:41;6.13;;;2.43;;
20456;SDS011;10387;51.102;6.848;2023-03-31T01:58:11;8.83;;;3.10;;
20456;SDS011;10387;51.102;6.848;2023-03-31T02:00:44;6.97;;;3.07;;
20456;SDS011;10387;51.102;6.848;2023-03-31T02:03:20;10.60;;;2.90;;
20456;SDS011;10387;51.102;6.848;2023-03-31T02:05:51;6.37;;;2.73;;
20456;SDS011;10387;51.102;6.848;2023-03-31T02:08:24;6.83;;;2.97;;
20456;SDS011;10387;51.102;6.848;2023-03-31T02:10:52;7.13;;;2.93;;
20456;SDS011;10387;51.102;6.848;2023-03-31T02:13:19;9.90;;;2.67;;
20456;SDS011;10387;51.102;6.848;2023-03-31T02:15:46;8.93;;;3.00;;
20456;SDS011;10387;51.102;6.848;2023-03-31T02:18:15;13.00;;;3.33;;
20456;SDS011;10387;51.102;6.848;2023-03-31T02:20:45;4.70;;;2.73;;
20456;SDS011;10387;51.102;6.848;2023-03-31T02:23:14;7.00;;;2.63;;
20456;SDS011;10387;51.102;6.848;2023-03-31T02:25:47;8.93;;;3.10;;
20456;SDS011;10387;51.102;6.848;2023-03-31T02:28:17;9.23;;;3.10;;
20456;SDS011;10387;51.102;6.848;2023-03-31T02:33:23;9.83;;;2.93;;
20456;SDS011;10387;51.102;6.848;2023-03-31T02:35:50;10.23;;;3.37;;
20456;SDS011;10387;51.102;6.848;2023-03-31T02:38:16;6.50;;;3.30;;
20456;SDS011;10387;51.102;6.848;2023-03-31T02:40:42;5.83;;;3.17;;
20456;SDS011;10387;51.102;6.848;2023-03-31T02:43:08;10.80;;;3.43;;
20456;SDS011;10387;51.102;6.848;2023-03-31T02:45:37;6.60;;;2.73;;
20456;SDS011;10387;51.102;6.848;2023-03-31T02:48:08;9.67;;;4.00;;
20456;SDS011;10387;51.102;6.848;2023-03-31T02:50:40;8.53;;;3.17;;
20456;SDS011;10387;51.102;6.848;2023-03-31T02:53:23;9.90;;;3.60;;
20456;SDS011;10387;51.102;6.848;2023-03-31T03:01:14;5.80;;;3.27;;
20456;SDS011;10387;51.102;6.848;2023-03-31T03:03:52;6.13;;;2.90;;
20456;SDS011;10387;51.102;6.848;2023-03-31T03:19:29;6.67;;;2.83;;
20456;SDS011;10387;51.102;6.848;2023-03-31T03:21:55;7.60;;;2.80;;
20456;SDS011;10387;51.102;6.848;2023-03-31T03:24:22;8.70;;;2.77;;
20456;SDS011;10387;51.102;6.848;2023-03-31T03:26:53;6.83;;;3.27;;
20456;SDS011;10387;51.102;6.848;2023-03-31T03:29:19;5.63;;;2.50;;
20456;SDS011;10387;51.102;6.848;2023-03-31T03:31:45;8.70;;;2.90;;
20456;SDS011;10387;51.102;6.848;2023-03-31T03:34:11;9.70;;;3.80;;
20456;SDS011;10387;51.102;6.848;2023-03-31T03:36:38;8.47;;;3.40;;
20456;SDS011;10387;51.102;6.848;2023-03-31T03:39:07;6.40;;;2.57;;
20456;SDS011;10387;51.102;6.848;2023-03-31T03:41:33;7.17;;;2.90;;
20456;SDS011;10387;51.102;6.848;2023-03-31T03:44:00;6.33;;;2.67;;
20456;SDS011;10387;51.102;6.848;2023-03-31T03:46:26;5.60;;;3.03;;
20456;SDS011;10387;51.102;6.848;2023-03-31T03:48:52;7.70;;;2.97;;
20456;SDS011;10387;51.102;6.848;2023-03-31T03:51:18;6.30;;;3.40;;
20456;SDS011;10387;51.102;6.848;2023-03-31T03:53:44;12.17;;;3.27;;
20456;SDS011;10387;51.102;6.848;2023-03-31T03:56:10;9.87;;;3.53;;
20456;SDS011;10387;51.102;6.848;2023-03-31T03:58:37;6.23;;;2.93;;
20456;SDS011;10387;51.102;6.848;2023-03-31T04:01:03;7.57;;;2.90;;
20456;SDS011;10387;51.102;6.848;2023-03-31T04:03:29;9.90;;;3.47;;
20456;SDS011;10387;51.102;6.848;2023-03-31T04:05:56;6.90;;;3.27;;
20456;SDS011;10387;51.102;6.848;2023-03-31T04:08:22;7.03;;;3.13;;
20456;SDS011;10387;51.102;6.848;2023-03-31T04:10:49;7.10;;;3.30;;
20456;SDS011;10387;51.102;6.848;2023-03-31T04:13:16;7.73;;;3.13;;
20456;SDS011;10387;51.102;6.848;2023-03-31T04:15:42;5.50;;;2.60;;
20456;SDS011;10387;51.102;6.848;2023-03-31T04:18:08;4.67;;;2.47;;
20456;SDS011;10387;51.102;6.848;2023-03-31T04:20:42;6.90;;;3.00;;
20456;SDS011;10387;51.102;6.848;2023-03-31T04:23:09;5.67;;;2.80;;
20456;SDS011;10387;51.102;6.848;2023-03-31T04:25:38;5.97;;;2.40;;
20456;SDS011;10387;51.102;6.848;2023-03-31T04:28:10;4.67;;;2.40;;
20456;SDS011;10387;51.102;6.848;2023-03-31T04:30:38;6.07;;;2.20;;
20456;SDS011;10387;51.102;6.848;2023-03-31T04:33:04;3.47;;;2.30;;
20456;SDS011;10387;51.102;6.848;2023-03-31T04:35:31;4.87;;;1.73;;
20456;SDS011;10387;51.102;6.848;2023-03-31T04:38:14;5.33;;;2.10;;
20456;SDS011;10387;51.102;6.848;2023-03-31T04:40:47;5.13;;;2.13;;
20456;SDS011;10387;51.102;6.848;2023-03-31T04:43:14;5.37;;;2.10;;
20456;SDS011;10387;51.102;6.848;2023-03-31T04:45:40;4.33;;;2.10;;
20456;SDS011;10387;51.102;6.848;2023-03-31T04:48:06;2.73;;;1.93;;
20456;SDS011;10387;51.102;6.848;2023-03-31T04:50:33;3.60;;;1.80;;
20456;SDS011;10387;51.102;6.848;2023-03-31T04:52:59;4.13;;;2.10;;
20456;SDS011;10387;51.102;6.848;2023-03-31T04:55:25;6.27;;;2.53;;
20456;SDS011;10387;51.102;6.848;2023-03-31T04:57:51;7.13;;;2.13;;
20456;SDS011;10387;51.102;6.848;2023-03-31T05:00:18;4.87;;;2.20;;
20456;SDS011;10387;51.102;6.848;2023-03-31T05:02:44;3.77;;;2.00;;
20456;SDS011;10387;51.102;6.848;2023-03-31T05:05:10;4.53;;;2.00;;
20456;SDS011;10387;51.102;6.848;2023-03-31T05:07:37;7.17;;;2.50;;
20456;SDS011;10387;51.102;6.848;2023-03-31T05:10:03;4.97;;;1.97;;
20456;SDS011;10387;51.102;6.848;2023-03-31T05:12:33;4.87;;;1.93;;
20456;SDS011;10387;51.102;6.848;2023-03-31T05:15:00;4.57;;;1.97;;
20456;SDS011;10387;51.102;6.848;2023-03-31T05:17:26;3.53;;;2.00;;
20456;SDS011;10387;51.102;6.848;2023-03-31T05:19:52;3.93;;;1.57;;
20456;SDS011;10387;51.102;6.848;2023-03-31T05:22:18;3.37;;;2.10;;
20456;SDS011;10387;51.102;6.848;2023-03-31T05:24:45;4.20;;;2.03;;
20456;SDS011;10387;51.102;6.848;2023-03-31T05:27:12;6.00;;;2.47;;
20456;SDS011;10387;51.102;6.848;2023-03-31T05:29:38;4.83;;;2.40;;
20456;SDS011;10387;51.102;6.848;2023-03-31T05:32:04;5.37;;;2.60;;
20456;SDS011;10387;51.102;6.848;2023-03-31T05:34:31;5.50;;;2.47;;
20456;SDS011;10387;51.102;6.848;2023-03-31T05:36:57;3.80;;;2.10;;
20456;SDS011;10387;51.102;6.848;2023-03-31T05:39:23;4.03;;;1.93;;
20456;SDS011;10387;51.102;6.848;2023-03-31T05:41:49;5.03;;;2.20;;
20456;SDS011;10387;51.102;6.848;2023-03-31T05:44:15;3.50;;;2.10;;
20456;SDS011;10387;51.102;6.848;2023-03-31T05:46:44;3.57;;;2.33;;
20456;SDS011;10387;51.102;6.848;2023-03-31T05:49:10;4.57;;;2.40;;
20456;SDS011;10387;51.102;6.848;2023-03-31T05:51:39;4.03;;;2.03;;
20456;SDS011;10387;51.102;6.848;2023-03-31T05:54:06;3.57;;;2.07;;
20456;SDS011;10387;51.102;6.848;2023-03-31T05:56:32;5.67;;;2.13;;
20456;SDS011;10387;51.102;6.848;2023-03-31T05:58:59;3.33;;;2.00;;
20456;SDS011;10387;51.102;6.848;2023-03-31T06:01:25;5.07;;;2.00;;
20456;SDS011;10387;51.102;6.848;2023-03-31T06:03:52;5.73;;;2.10;;
20456;SDS011;10387;51.102;6.848;2023-03-31T06:06:19;3.90;;;2.13;;
20456;SDS011;10387;51.102;6.848;2023-03-31T06:08:45;4.73;;;2.40;;
20456;SDS011;10387;51.102;6.848;2023-03-31T06:11:15;4.50;;;2.20;;
20456;SDS011;10387;51.102;6.848;2023-03-31T06:13:43;19.07;;;5.50;;
20456;SDS011;10387;51.102;6.848;2023-03-31T06:16:10;3.60;;;2.53;;
20456;SDS011;10387;51.102;6.848;2023-03-31T06:18:36;4.67;;;2.00;;
20456;SDS011;10387;51.102;6.848;2023-03-31T06:21:02;4.50;;;2.30;;
20456;SDS011;10387;51.102;6.848;2023-03-31T06:23:29;2.87;;;2.20;;
20456;SDS011;10387;51.102;6.848;2023-03-31T06:25:58;4.07;;;1.73;;
20456;SDS011;10387;51.102;6.848;2023-03-31T06:28:25;5.40;;;2.10;;
20456;SDS011;10387;51.102;6.848;2023-03-31T06:30:58;3.63;;;1.73;;
20456;SDS011;10387;51.102;6.848;2023-03-31T06:33:24;4.23;;;1.60;;
20456;SDS011;10387;51.102;6.848;2023-03-31T06:35:50;4.67;;;1.77;;
20456;SDS011;10387;51.102;6.848;2023-03-31T06:38:16;1.83;;;1.40;;
20456;SDS011;10387;51.102;6.848;2023-03-31T06:40:42;4.43;;;1.70;;
20456;SDS011;10387;51.102;6.848;2023-03-31T06:43:08;4.07;;;1.70;;
20456;SDS011;10387;51.102;6.848;2023-03-31T06:45:35;2.87;;;1.30;;
20456;SDS011;10387;51.102;6.848;2023-03-31T06:48:01;4.03;;;1.80;;
20456;SDS011;10387;51.102;6.848;2023-03-31T06:50:30;2.40;;;1.57;;
20456;SDS011;10387;51.102;6.848;2023-03-31T06:52:56;2.60;;;1.57;;
20456;SDS011;10387;51.102;6.848;2023-03-31T06:55:22;2.33;;;1.60;;
20456;SDS011;10387;51.102;6.848;2023-03-31T06:57:49;1.63;;;1.00;;
20456;SDS011;10387;51.102;6.848;2023-03-31T07:00:15;2.70;;;1.37;;
20456;SDS011;10387;51.102;6.848;2023-03-31T07:02:41;3.27;;;1.50;;
20456;SDS011;10387;51.102;6.848;2023-03-31T07:05:07;2.20;;;1.13;;
20456;SDS011;10387;51.102;6.848;2023-03-31T07:07:33;2.97;;;1.30;;
20456;SDS011;10387;51.102;6.848;2023-03-31T07:10:00;1.77;;;1.07;;
20456;SDS011;10387;51.102;6.848;2023-03-31T07:12:26;3.17;;;1.30;;
20456;SDS011;10387;51.102;6.848;2023-03-31T07:14:52;1.63;;;1.20;;
20456;SDS011;10387;51.102;6.848;2023-03-31T07:17:18;2.23;;;1.30;;
20456;SDS011;10387;51.102;6.848;2023-03-31T07:19:45;2.23;;;1.13;;
20456;SDS011;10387;51.102;6.848;2023-03-31T07:22:12;1.63;;;0.90;;
20456;SDS011;10387;51.102;6.848;2023-03-31T07:24:39;0.93;;;0.90;;
20456;SDS011;10387;51.102;6.848;2023-03-31T07:27:05;2.60;;;0.90;;
20456;SDS011;10387;51.102;6.848;2023-03-31T07:29:31;2.30;;;0.70;;
20456;SDS011;10387;51.102;6.848;2023-03-31T07:31:57;1.17;;;1.03;;
20456;SDS011;10387;51.102;6.848;2023-03-31T07:34:23;2.10;;;1.00;;
20456;SDS011;10387;51.102;6.848;2023-03-31T07:36:49;1.10;;;1.00;;
20456;SDS011;10387;51.102;6.848;2023-03-31T07:39:17;1.73;;;1.20;;
20456;SDS011;10387;51.102;6.848;2023-03-31T07:41:43;1.77;;;0.90;;
20456;SDS011;10387;51.102;6.848;2023-03-31T07:44:09;1.23;;;0.90;;
20456;SDS011;10387;51.102;6.848;2023-03-31T07:46:35;1.70;;;1.00;;
20456;SDS011;10387;51.102;6.848;2023-03-31T07:49:01;2.10;;;0.90;;
20456;SDS011;10387;51.102;6.848;2023-03-31T07:51:27;1.43;;;0.90;;
20456;SDS011;10387;51.102;6.848;2023-03-31T07:53:53;1.50;;;0.80;;
20456;SDS011;10387;51.102;6.848;2023-03-31T07:56:21;1.60;;;1.07;;
20456;SDS011;10387;51.102;6.848;2023-03-31T07:58:47;1.57;;;0.83;;
20456;SDS011;10387;51.102;6.848;2023-03-31T08:01:14;2.83;;;1.10;;
20456;SDS011;10387;51.102;6.848;2023-03-31T08:03:43;3.60;;;1.13;;
20456;SDS011;10387;51.102;6.848;2023-03-31T08:06:10;3.67;;;1.10;;
20456;SDS011;10387;51.102;6.848;2023-03-31T08:08:37;2.73;;;1.17;;
20456;SDS011;10387;51.102;6.848;2023-03-31T08:11:07;3.20;;;1.40;;
20456;SDS011;10387;51.102;6.848;2023-03-31T08:13:33;2.13;;;1.33;;
20456;SDS011;10387;51.102;6.848;2023-03-31T08:15:59;2.80;;;1.60;;
20456;SDS011;10387;51.102;6.848;2023-03-31T08:18:26;3.80;;;3.43;;
20456;SDS011;10387;51.102;6.848;2023-03-31T08:20:52;2.70;;;1.60;;
20456;SDS011;10387;51.102;6.848;2023-03-31T08:23:18;4.07;;;1.47;;
20456;SDS011;10387;51.102;6.848;2023-03-31T08:25:44;4.23;;;1.33;;
20456;SDS011;10387;51.102;6.848;2023-03-31T08:28:10;4.90;;;1.50;;
20456;SDS011;10387;51.102;6.848;2023-03-31T08:30:38;4.50;;;1.70;;
20456;SDS011;10387;51.102;6.848;2023-03-31T08:33:05;2.83;;;1.63;;
20456;SDS011;10387;51.102;6.848;2023-03-31T08:35:32;6.30;;;2.07;;
20456;SDS011;10387;51.102;6.848;2023-03-31T08:37:58;4.90;;;2.10;;
20456;SDS011;10387;51.102;6.848;2023-03-31T08:40:26;6.20;;;2.20;;
20456;SDS011;10387;51.102;6.848;2023-03-31T08:42:54;2.60;;;1.60;;
20456;SDS011;10387;51.102;6.848;2023-03-31T08:45:34;3.43;;;1.67;;
20456;SDS011;10387;51.102;6.848;2023-03-31T08:48:16;5.73;;;2.13;;
20456;SDS011;10387;51.102;6.848;2023-03-31T08:50:49;5.03;;;1.83;;
20456;SDS011;10387;51.102;6.848;2023-03-31T08:53:23;6.07;;;2.00;;
20456;SDS011;10387;51.102;6.848;2023-03-31T08:55:53;5.63;;;1.87;;
20456;SDS011;10387;51.102;6.848;2023-03-31T09:00:59;5.63;;;1.83;;
20456;SDS011;10387;51.102;6.848;2023-03-31T09:03:30;7.83;;;2.30;;
20456;SDS011;10387;51.102;6.848;2023-03-31T09:06:04;4.90;;;2.40;;
20456;SDS011;10387;51.102;6.848;2023-03-31T09:08:42;8.10;;;2.57;;
20456;SDS011;10387;51.102;6.848;2023-03-31T09:13:55;8.23;;;2.63;;
20456;SDS011;10387;51.102;6.848;2023-03-31T09:16:37;7.23;;;2.50;;
20456;SDS011;10387;51.102;6.848;2023-03-31T09:19:13;7.57;;;3.33;;
20456;SDS011;10387;51.102;6.848;2023-03-31T09:24:31;7.43;;;2.80;;
20456;SDS011;10387;51.102;6.848;2023-03-31T09:32:18;6.93;;;2.53;;
20456;SDS011;10387;51.102;6.848;2023-03-31T09:34:45;6.47;;;2.80;;
20456;SDS011;10387;51.102;6.848;2023-03-31T09:37:12;7.60;;;2.70;;
20456;SDS011;10387;51.102;6.848;2023-03-31T09:39:38;8.33;;;3.13;;
20456;SDS011;10387;51.102;6.848;2023-03-31T09:42:05;9.07;;;2.67;;
20456;SDS011;10387;51.102;6.848;2023-03-31T09:44:39;6.33;;;3.00;;
20456;SDS011;10387;51.102;6.848;2023-03-31T09:47:08;5.60;;;2.50;;
20456;SDS011;10387;51.102;6.848;2023-03-31T09:49:36;8.90;;;2.73;;
20456;SDS011;10387;51.102;6.848;2023-03-31T09:52:08;5.47;;;2.57;;
20456;SDS011;10387;51.102;6.848;2023-03-31T09:54:42;7.70;;;2.73;;
20456;SDS011;10387;51.102;6.848;2023-03-31T09:57:29;7.63;;;2.80;;
20456;SDS011;10387;51.102;6.848;2023-03-31T10:07:48;5.00;;;2.43;;
20456;SDS011;10387;51.102;6.848;2023-03-31T10:10:23;10.63;;;2.80;;
20456;SDS011;10387;51.102;6.848;2023-03-31T10:12:51;9.10;;;2.40;;
20456;SDS011;10387;51.102;6.848;2023-03-31T10:15:18;6.80;;;2.60;;
20456;SDS011;10387;51.102;6.848;2023-03-31T10:17:45;5.83;;;2.40;;
20456;SDS011;10387;51.102;6.848;2023-03-31T10:20:47;8.17;;;2.90;;
20456;SDS011;10387;51.102;6.848;2023-03-31T10:23:17;8.80;;;2.43;;
20456;SDS011;10387;51.102;6.848;2023-03-31T10:25:48;6.23;;;2.50;;
20456;SDS011;10387;51.102;6.848;2023-03-31T10:28:16;7.80;;;2.73;;
20456;SDS011;10387;51.102;6.848;2023-03-31T10:30:46;7.07;;;3.00;;
20456;SDS011;10387;51.102;6.848;2023-03-31T10:33:15;7.33;;;2.67;;
20456;SDS011;10387;51.102;6.848;2023-03-31T10:35:43;7.27;;;2.47;;
20456;SDS011;10387;51.102;6.848;2023-03-31T10:38:11;5.13;;;2.20;;
20456;SDS011;10387;51.102;6.848;2023-03-31T10:40:40;5.47;;;2.77;;
20456;SDS011;10387;51.102;6.848;2023-03-31T10:45:35;7.83;;;2.50;;
20456;SDS011;10387;51.102;6.848;2023-03-31T10:48:02;10.17;;;2.80;;
20456;SDS011;10387;51.102;6.848;2023-03-31T10:50:32;7.03;;;2.10;;
20456;SDS011;10387;51.102;6.848;2023-03-31T10:55:31;8.23;;;2.40;;
20456;SDS011;10387;51.102;6.848;2023-03-31T10:58:01;5.93;;;2.57;;
20456;SDS011;10387;51.102;6.848;2023-03-31T11:00:31;7.33;;;3.03;;
20456;SDS011;10387;51.102;6.848;2023-03-31T11:05:34;4.70;;;1.87;;
20456;SDS011;10387;51.102;6.848;2023-03-31T11:08:11;4.53;;;2.20;;
20456;SDS011;10387;51.102;6.848;2023-03-31T11:13:16;8.60;;;2.70;;
20456;SDS011;10387;51.102;6.848;2023-03-31T11:15:49;7.23;;;2.70;;
20456;SDS011;10387;51.102;6.848;2023-03-31T11:18:51;2.57;;;1.33;;
20456;SDS011;10387;51.102;6.848;2023-03-31T11:21:31;4.03;;;1.50;;
20456;SDS011;10387;51.102;6.848;2023-03-31T11:24:06;2.43;;;1.20;;
20456;SDS011;10387;51.102;6.848;2023-03-31T11:26:38;2.03;;;0.83;;
20456;SDS011;10387;51.102;6.848;2023-03-31T11:34:34;1.83;;;1.57;;
20456;SDS011;10387;51.102;6.848;2023-03-31T11:37:10;2.80;;;1.40;;
20456;SDS011;10387;51.102;6.848;2023-03-31T11:42:11;4.53;;;1.60;;
20456;SDS011;10387;51.102;6.848;2023-03-31T11:44:47;4.30;;;1.70;;
20456;SDS011;10387;51.102;6.848;2023-03-31T11:47:18;3.13;;;1.60;;
20456;SDS011;10387;51.102;6.848;2023-03-31T11:49:46;3.80;;;1.43;;
20456;SDS011;10387;51.102;6.848;2023-03-31T11:52:17;3.57;;;1.40;;
20456;SDS011;10387;51.102;6.848;2023-03-31T11:55:00;4.23;;;1.20;;
20456;SDS011;10387;51.102;6.848;2023-03-31T11:57:41;2.53;;;1.20;;
20456;SDS011;10387;51.102;6.848;2023-03-31T12:00:18;2.73;;;1.23;;
20456;SDS011;10387;51.102;6.848;2023-03-31T12:02:50;3.97;;;1.47;;
20456;SDS011;10387;51.102;6.848;2023-03-31T12:05:18;2.47;;;1.40;;
20456;SDS011;10387;51.102;6.848;2023-03-31T12:10:22;5.43;;;1.57;;
20456;SDS011;10387;51.102;6.848;2023-03-31T12:12:50;6.87;;;1.90;;
20456;SDS011;10387;51.102;6.848;2023-03-31T12:15:31;7.07;;;2.10;;
20456;SDS011;10387;51.102;6.848;2023-03-31T12:18:20;7.47;;;2.20;;
20456;SDS011;10387;51.102;6.848;2023-03-31T12:20:51;2.87;;;1.73;;
20456;SDS011;10387;51.102;6.848;2023-03-31T12:23:19;6.50;;;2.60;;
20456;SDS011;10387;51.102;6.848;2023-03-31T12:28:20;7.23;;;2.50;;
20456;SDS011;10387;51.102;6.848;2023-03-31T12:30:47;9.70;;;2.63;;
20456;SDS011;10387;51.102;6.848;2023-03-31T12:33:27;8.97;;;2.77;;
20456;SDS011;10387;51.102;6.848;2023-03-31T12:36:16;8.67;;;2.87;;
20456;SDS011;10387;51.102;6.848;2023-03-31T12:42:21;8.60;;;2.57;;
20456;SDS011;10387;51.102;6.848;2023-03-31T12:47:08;5.80;;;2.30;;
20456;SDS011;10387;51.102;6.848;2023-03-31T12:52:17;6.17;;;2.10;;
20456;SDS011;10387;51.102;6.848;2023-03-31T12:57:23;4.23;;;2.30;;
20456;SDS011;10387;51.102;6.848;2023-03-31T13:02:34;5.50;;;2.10;;
20456;SDS011;10387;51.102;6.848;2023-03-31T13:05:39;5.27;;;2.30;;
20456;SDS011;10387;51.102;6.848;2023-03-31T13:07:46;9.43;;;2.77;;
20456;SDS011;10387;51.102;6.848;2023-03-31T13:13:02;4.90;;;1.70;;
20456;SDS011;10387;51.102;6.848;2023-03-31T13:15:29;6.47;;;2.10;;
20456;SDS011;10387;51.102;6.848;2023-03-31T13:17:56;8.27;;;2.03;;
20456;SDS011;10387;51.102;6.848;2023-03-31T13:20:25;6.57;;;2.40;;
20456;SDS011;10387;51.102;6.848;2023-03-31T13:23:01;5.23;;;2.07;;
20456;SDS011;10387;51.102;6.848;2023-03-31T13:27:58;5.00;;;2.03;;
20456;SDS011;10387;51.102;6.848;2023-03-31T13:33:02;3.27;;;1.40;;
20456;SDS011;10387;51.102;6.848;2023-03-31T13:35:29;3.27;;;1.60;;
20456;SDS011;10387;51.102;6.848;2023-03-31T13:40:50;3.93;;;1.63;;
20456;SDS011;10387;51.102;6.848;2023-03-31T14:07:16;4.03;;;1.07;;
20456;SDS011;10387;51.102;6.848;2023-03-31T14:09:44;3.80;;;1.20;;
20456;SDS011;10387;51.102;6.848;2023-03-31T14:12:33;5.90;;;1.37;;
20456;SDS011;10387;51.102;6.848;2023-03-31T14:14:59;2.97;;;1.33;;
20456;SDS011;10387;51.102;6.848;2023-03-31T14:17:27;3.87;;;1.33;;
20456;SDS011;10387;51.102;6.848;2023-03-31T14:25:08;3.03;;;1.43;;
20456;SDS011;10387;51.102;6.848;2023-03-31T14:27:51;2.50;;;1.30;;
20456;SDS011;10387;51.102;6.848;2023-03-31T14:30:38;3.17;;;1.80;;
20456;SDS011;10387;51.102;6.848;2023-03-31T14:35:42;3.93;;;2.03;;
20456;SDS011;10387;51.102;6.848;2023-03-31T14:38:15;3.80;;;1.60;;
20456;SDS011;10387;51.102;6.848;2023-03-31T14:40:46;3.23;;;1.23;;
20456;SDS011;10387;51.102;6.848;2023-03-31T14:43:17;3.17;;;1.30;;
20456;SDS011;10387;51.102;6.848;2023-03-31T14:45:44;3.33;;;1.90;;
20456;SDS011;10387;51.102;6.848;2023-03-31T14:48:11;2.77;;;1.20;;
20456;SDS011;10387;51.102;6.848;2023-03-31T14:50:41;5.00;;;1.50;;
20456;SDS011;10387;51.102;6.848;2023-03-31T14:53:17;5.90;;;1.60;;
20456;SDS011;10387;51.102;6.848;2023-03-31T14:55:45;4.60;;;1.67;;
20456;SDS011;10387;51.102;6.848;2023-03-31T14:58:12;4.47;;;1.70;;
20456;SDS011;10387;51.102;6.848;2023-03-31T15:00:39;6.63;;;1.80;;
20456;SDS011;10387;51.102;6.848;2023-03-31T15:03:06;4.90;;;2.00;;
20456;SDS011;10387;51.102;6.848;2023-03-31T15:05:34;6.27;;;2.30;;
20456;SDS011;10387;51.102;6.848;2023-03-31T15:08:02;4.07;;;1.87;;
20456;SDS011;10387;51.102;6.848;2023-03-31T15:10:34;3.97;;;1.93;;
20456;SDS011;10387;51.102;6.848;2023-03-31T15:13:06;4.70;;;2.00;;
20456;SDS011;10387;51.102;6.848;2023-03-31T15:15:33;7.70;;;2.30;;
20456;SDS011;10387;51.102;6.848;2023-03-31T15:17:59;6.50;;;2.20;;
20456;SDS011;10387;51.102;6.848;2023-03-31T15:20:30;8.00;;;2.60;;
20456;SDS011;10387;51.102;6.848;2023-03-31T15:22:58;7.60;;;2.50;;
20456;SDS011;10387;51.102;6.848;2023-03-31T15:25:25;10.70;;;3.07;;
20456;SDS011;10387;51.102;6.848;2023-03-31T15:27:54;5.93;;;1.87;;
20456;SDS011;10387;51.102;6.848;2023-03-31T15:30:23;6.20;;;2.33;;
20456;SDS011;10387;51.102;6.848;2023-03-31T15:32:49;5.93;;;2.00;;
20456;SDS011;10387;51.102;6.848;2023-03-31T15:35:20;4.27;;;2.07;;
20456;SDS011;10387;51.102;6.848;2023-03-31T15:37:48;4.60;;;2.10;;
20456;SDS011;10387;51.102;6.848;2023-03-31T15:42:42;4.70;;;2.07;;
20456;SDS011;10387;51.102;6.848;2023-03-31T15:45:55;3.77;;;1.90;;
20456;SDS011;10387;51.102;6.848;2023-03-31T15:47:55;3.77;;;1.83;;
20456;SDS011;10387;51.102;6.848;2023-03-31T15:50:22;5.43;;;2.70;;
20456;SDS011;10387;51.102;6.848;2023-03-31T15:52:49;5.77;;;1.97;;
20456;SDS011;10387;51.102;6.848;2023-03-31T15:57:51;3.93;;;1.97;;
20456;SDS011;10387;51.102;6.848;2023-03-31T16:02:56;3.73;;;1.57;;
20456;SDS011;10387;51.102;6.848;2023-03-31T16:05:27;2.90;;;1.60;;
20456;SDS011;10387;51.102;6.848;2023-03-31T16:07:58;5.33;;;1.40;;
20456;SDS011;10387;51.102;6.848;2023-03-31T16:10:24;5.27;;;1.57;;
20456;SDS011;10387;51.102;6.848;2023-03-31T16:12:56;3.43;;;1.67;;
20456;SDS011;10387;51.102;6.848;2023-03-31T16:15:33;3.67;;;1.67;;
20456;SDS011;10387;51.102;6.848;2023-03-31T16:18:09;3.00;;;1.33;;
20456;SDS011;10387;51.102;6.848;2023-03-31T16:20:38;3.80;;;1.50;;
20456;SDS011;10387;51.102;6.848;2023-03-31T16:23:14;2.57;;;1.27;;
20456;SDS011;10387;51.102;6.848;2023-03-31T16:25:40;1.73;;;1.13;;
20456;SDS011;10387;51.102;6.848;2023-03-31T16:28:07;4.07;;;1.37;;
20456;SDS011;10387;51.102;6.848;2023-03-31T16:30:39;2.37;;;1.10;;
20456;SDS011;10387;51.102;6.848;2023-03-31T16:33:07;1.60;;;1.07;;
20456;SDS011;10387;51.102;6.848;2023-03-31T16:35:34;2.03;;;0.90;;
20456;SDS011;10387;51.102;6.848;2023-03-31T16:38:01;2.80;;;1.07;;
20456;SDS011;10387;51.102;6.848;2023-03-31T16:40:28;2.30;;;1.30;;
20456;SDS011;10387;51.102;6.848;2023-03-31T16:45:33;2.47;;;1.67;;
20456;SDS011;10387;51.102;6.848;2023-03-31T16:47:59;3.63;;;1.33;;
20456;SDS011;10387;51.102;6.848;2023-03-31T16:50:25;3.53;;;1.50;;
20456;SDS011;10387;51.102;6.848;2023-03-31T16:52:51;2.43;;;1.00;;
20456;SDS011;10387;51.102;6.848;2023-03-31T16:55:17;3.13;;;1.10;;
20456;SDS011;10387;51.102;6.848;2023-03-31T16:57:43;4.40;;;1.60;;
20456;SDS011;10387;51.102;6.848;2023-03-31T17:00:10;3.00;;;1.30;;
20456;SDS011;10387;51.102;6.848;2023-03-31T17:02:36;3.73;;;1.50;;
20456;SDS011;10387;51.102;6.848;2023-03-31T17:05:03;2.30;;;1.27;;
20456;SDS011;10387;51.102;6.848;2023-03-31T17:07:29;3.50;;;1.50;;
20456;SDS011;10387;51.102;6.848;2023-03-31T17:09:55;2.33;;;1.03;;
20456;SDS011;10387;51.102;6.848;2023-03-31T17:12:22;3.73;;;1.37;;
20456;SDS011;10387;51.102;6.848;2023-03-31T17:14:48;3.60;;;1.13;;
20456;SDS011;10387;51.102;6.848;2023-03-31T17:17:14;3.73;;;1.50;;
20456;SDS011;10387;51.102;6.848;2023-03-31T17:19:40;3.93;;;1.43;;
20456;SDS011;10387;51.102;6.848;2023-03-31T17:22:06;4.03;;;1.50;;
20456;SDS011;10387;51.102;6.848;2023-03-31T17:24:32;2.43;;;1.27;;
20456;SDS011;10387;51.102;6.848;2023-03-31T17:26:58;2.43;;;1.30;;
20456;SDS011;10387;51.102;6.848;2023-03-31T17:29:26;3.50;;;1.50;;
20456;SDS011;10387;51.102;6.848;2023-03-31T17:31:52;3.07;;;1.33;;
20456;SDS011;10387;51.102;6.848;2023-03-31T17:34:20;3.27;;;1.30;;
20456;SDS011;10387;51.102;6.848;2023-03-31T17:36:46;3.87;;;1.47;;
20456;SDS011;10387;51.102;6.848;2023-03-31T17:39:14;3.07;;;1.30;;